sensor_id;sensor_type;location;lat;lon;timestamp;pressure;altitude;pressure_sealevel;temperature;humidity
64200;BME280;50516;52.272;5.136;2023-05-07T00:00:42;101645.19;;;16.51;91.06
64200;BME280;50516;52.272;5.136;2023-05-07T00:03:08;101639.72;;;16.46;91.10
64200;BME280;50516;52.272;5.136;2023-05-07T00:05:33;101648.03;;;16.46;91.26
64200;BME280;50516;52.272;5.136;2023-05-07T00:07:58;101651.97;;;16.40;91.08
64200;BME280;50516;52.272;5.136;2023-05-07T00:10:24;101651.44;;;16.38;91.22
64200;BME280;50516;52.272;5.136;2023-05-07T00:12:50;101654.50;;;16.36;91.11
64200;BME280;50516;52.272;5.136;2023-05-07T00:15:15;101662.53;;;16.38;90.95
64200;BME280;50516;52.272;5.136;2023-05-07T00:17:41;101647.53;;;16.39;90.99
64200;BME280;50516;52.272;5.136;2023-05-07T00:20:06;101643.66;;;16.40;90.81
64200;BME280;50516;52.272;5.136;2023-05-07T00:22:32;101642.03;;;16.34;91.12
64200;BME280;50516;52.272;5.136;2023-05-07T00:24:58;101643.19;;;16.33;91.09
64200;BME280;50516;52.272;5.136;2023-05-07T00:27:24;101639.03;;;16.30;91.13
64200;BME280;50516;52.272;5.136;2023-05-07T00:29:50;101634.34;;;16.25;91.47
64200;BME280;50516;52.272;5.136;2023-05-07T00:32:15;101636.03;;;16.27;91.46
64200;BME280;50516;52.272;5.136;2023-05-07T00:34:41;101640.72;;;16.26;91.33
64200;BME280;50516;52.272;5.136;2023-05-07T00:37:06;101643.00;;;16.19;91.50
64200;BME280;50516;52.272;5.136;2023-05-07T00:39:34;101638.28;;;16.19;91.64
64200;BME280;50516;52.272;5.136;2023-05-07T00:42:00;101637.19;;;16.20;91.41
64200;BME280;50516;52.272;5.136;2023-05-07T00:44:26;101643.00;;;16.19;91.07
64200;BME280;50516;52.272;5.136;2023-05-07T00:46:51;101643.31;;;16.17;91.03
64200;BME280;50516;52.272;5.136;2023-05-07T00:49:18;101635.50;;;16.19;90.65
64200;BME280;50516;52.272;5.136;2023-05-07T00:51:43;101633.63;;;16.15;90.57
64200;BME280;50516;52.272;5.136;2023-05-07T00:54:10;101634.22;;;16.12;90.71
64200;BME280;50516;52.272;5.136;2023-05-07T00:56:36;101631.75;;;16.10;90.65
64200;BME280;50516;52.272;5.136;2023-05-07T00:59:02;101630.59;;;16.11;90.80
64200;BME280;50516;52.272;5.136;2023-05-07T01:01:28;101632.84;;;16.09;90.73
64200;BME280;50516;52.272;5.136;2023-05-07T01:03:53;101637.31;;;16.05;90.72
64200;BME280;50516;52.272;5.136;2023-05-07T01:06:19;101630.94;;;16.04;90.88
64200;BME280;50516;52.272;5.136;2023-05-07T01:08:46;101627.88;;;16.06;90.47
64200;BME280;50516;52.272;5.136;2023-05-07T01:11:13;101632.31;;;16.07;90.61
64200;BME280;50516;52.272;5.136;2023-05-07T01:13:39;101638.63;;;16.13;90.68
64200;BME280;50516;52.272;5.136;2023-05-07T01:16:05;101633.38;;;16.11;90.45
64200;BME280;50516;52.272;5.136;2023-05-07T01:18:30;101638.16;;;16.05;90.96
64200;BME280;50516;52.272;5.136;2023-05-07T01:20:58;101635.09;;;16.07;90.92
64200;BME280;50516;52.272;5.136;2023-05-07T01:23:25;101628.13;;;16.10;90.94
64200;BME280;50516;52.272;5.136;2023-05-07T01:25:54;101625.63;;;16.13;91.09
64200;BME280;50516;52.272;5.136;2023-05-07T01:28:19;101626.72;;;16.12;91.11
64200;BME280;50516;52.272;5.136;2023-05-07T01:30:50;101623.16;;;16.12;90.97
64200;BME280;50516;52.272;5.136;2023-05-07T01:33:20;101623.44;;;16.10;91.14
64200;BME280;50516;52.272;5.136;2023-05-07T01:35:51;101624.25;;;16.11;91.10
64200;BME280;50516;52.272;5.136;2023-05-07T01:38:18;101621.19;;;16.12;90.91
64200;BME280;50516;52.272;5.136;2023-05-07T01:40:43;101628.41;;;16.13;91.11
64200;BME280;50516;52.272;5.136;2023-05-07T01:43:09;101637.00;;;16.12;91.17
64200;BME280;50516;52.272;5.136;2023-05-07T01:45:34;101620.09;;;16.08;91.37
64200;BME280;50516;52.272;5.136;2023-05-07T01:48:01;101624.88;;;16.02;91.50
64200;BME280;50516;52.272;5.136;2023-05-07T01:50:27;101619.91;;;15.99;91.88
64200;BME280;50516;52.272;5.136;2023-05-07T01:52:53;101622.09;;;16.02;91.72
64200;BME280;50516;52.272;5.136;2023-05-07T01:55:18;101620.16;;;16.03;91.55
64200;BME280;50516;52.272;5.136;2023-05-07T01:57:44;101622.44;;;15.96;92.22
64200;BME280;50516;52.272;5.136;2023-05-07T02:00:10;101633.53;;;15.96;92.10
64200;BME280;50516;52.272;5.136;2023-05-07T02:02:35;101630.19;;;15.94;92.23
64200;BME280;50516;52.272;5.136;2023-05-07T02:05:01;101624.66;;;15.94;92.30
64200;BME280;50516;52.272;5.136;2023-05-07T02:07:27;101628.56;;;15.93;91.85
64200;BME280;50516;52.272;5.136;2023-05-07T02:09:52;101633.25;;;15.92;92.10
64200;BME280;50516;52.272;5.136;2023-05-07T02:12:18;101629.09;;;15.95;91.78
64200;BME280;50516;52.272;5.136;2023-05-07T02:14:43;101627.72;;;15.92;91.90
64200;BME280;50516;52.272;5.136;2023-05-07T02:17:08;101623.03;;;15.93;91.84
64200;BME280;50516;52.272;5.136;2023-05-07T02:19:33;101619.69;;;15.96;91.75
64200;BME280;50516;52.272;5.136;2023-05-07T02:21:59;101620.78;;;15.95;91.53
64200;BME280;50516;52.272;5.136;2023-05-07T02:24:24;101617.47;;;15.93;91.64
64200;BME280;50516;52.272;5.136;2023-05-07T02:26:50;101620.25;;;15.93;91.71
64200;BME280;50516;52.272;5.136;2023-05-07T02:29:15;101616.91;;;15.96;91.56
64200;BME280;50516;52.272;5.136;2023-05-07T02:31:40;101618.53;;;15.97;91.67
64200;BME280;50516;52.272;5.136;2023-05-07T02:34:05;101625.44;;;15.99;91.39
64200;BME280;50516;52.272;5.136;2023-05-07T02:36:31;101624.94;;;15.97;91.44
64200;BME280;50516;52.272;5.136;2023-05-07T02:38:56;101621.88;;;15.99;91.41
64200;BME280;50516;52.272;5.136;2023-05-07T02:41:21;101625.16;;;16.01;91.36
64200;BME280;50516;52.272;5.136;2023-05-07T02:43:47;101624.06;;;16.02;91.26
64200;BME280;50516;52.272;5.136;2023-05-07T02:46:12;101626.50;;;16.03;91.65
64200;BME280;50516;52.272;5.136;2023-05-07T02:48:37;101624.88;;;16.02;91.39
64200;BME280;50516;52.272;5.136;2023-05-07T02:51:03;101626.28;;;16.00;91.37
64200;BME280;50516;52.272;5.136;2023-05-07T02:53:29;101623.50;;;16.00;91.42
64200;BME280;50516;52.272;5.136;2023-05-07T02:55:59;101623.50;;;16.00;91.50
64200;BME280;50516;52.272;5.136;2023-05-07T02:58:24;101627.13;;;16.00;91.57
64200;BME280;50516;52.272;5.136;2023-05-07T03:00:50;101629.03;;;16.00;91.35
64200;BME280;50516;52.272;5.136;2023-05-07T03:03:16;101614.91;;;16.01;91.66
64200;BME280;50516;52.272;5.136;2023-05-07T03:05:41;101622.41;;;16.01;91.58
64200;BME280;50516;52.272;5.136;2023-05-07T03:08:07;101617.97;;;16.00;91.82
64200;BME280;50516;52.272;5.136;2023-05-07T03:10:32;101621.88;;;15.99;91.76
64200;BME280;50516;52.272;5.136;2023-05-07T03:12:58;101624.34;;;16.00;91.95
64200;BME280;50516;52.272;5.136;2023-05-07T03:15:23;101615.47;;;15.98;91.70
64200;BME280;50516;52.272;5.136;2023-05-07T03:17:48;101614.91;;;16.01;91.91
64200;BME280;50516;52.272;5.136;2023-05-07T03:20:14;101617.97;;;16.00;91.81
64200;BME280;50516;52.272;5.136;2023-05-07T03:22:40;101617.47;;;15.93;92.04
64200;BME280;50516;52.272;5.136;2023-05-07T03:25:06;101614.13;;;15.96;92.18
64200;BME280;50516;52.272;5.136;2023-05-07T03:27:31;101607.47;;;15.97;92.25
64200;BME280;50516;52.272;5.136;2023-05-07T03:29:57;101606.06;;;15.99;92.10
64200;BME280;50516;52.272;5.136;2023-05-07T03:32:22;101608.53;;;16.01;91.98
64200;BME280;50516;52.272;5.136;2023-05-07T03:34:47;101597.22;;;15.97;92.45
64200;BME280;50516;52.272;5.136;2023-05-07T03:37:13;101605.81;;;15.96;92.36
64200;BME280;50516;52.272;5.136;2023-05-07T03:39:38;101610.53;;;15.95;92.50
64200;BME280;50516;52.272;5.136;2023-05-07T03:42:03;101600.88;;;15.93;92.63
64200;BME280;50516;52.272;5.136;2023-05-07T03:44:28;101600.88;;;15.93;92.56
64200;BME280;50516;52.272;5.136;2023-05-07T03:46:54;101606.69;;;15.91;92.52
64200;BME280;50516;52.272;5.136;2023-05-07T03:49:20;101605.03;;;15.90;92.77
64200;BME280;50516;52.272;5.136;2023-05-07T03:51:45;101607.56;;;15.86;92.77
64200;BME280;50516;52.272;5.136;2023-05-07T03:54:11;101611.44;;;15.85;93.08
64200;BME280;50516;52.272;5.136;2023-05-07T03:56:36;101615.88;;;15.86;93.14
64200;BME280;50516;52.272;5.136;2023-05-07T03:59:01;101619.72;;;15.91;92.85
64200;BME280;50516;52.272;5.136;2023-05-07T04:01:27;101613.88;;;15.92;93.03
64200;BME280;50516;52.272;5.136;2023-05-07T04:03:52;101611.94;;;15.93;92.84
64200;BME280;50516;52.272;5.136;2023-05-07T04:06:17;101621.88;;;15.94;92.90
64200;BME280;50516;52.272;5.136;2023-05-07T04:08:43;101630.81;;;15.91;93.23
64200;BME280;50516;52.272;5.136;2023-05-07T04:11:08;101627.44;;;15.94;92.96
64200;BME280;50516;52.272;5.136;2023-05-07T04:13:34;101627.72;;;15.92;93.11
64200;BME280;50516;52.272;5.136;2023-05-07T04:16:01;101627.19;;;15.90;92.96
64200;BME280;50516;52.272;5.136;2023-05-07T04:18:27;101626.41;;;15.84;93.56
64200;BME280;50516;52.272;5.136;2023-05-07T04:20:52;101630.81;;;15.91;93.19
64200;BME280;50516;52.272;5.136;2023-05-07T04:23:18;101628.84;;;15.91;93.41
64200;BME280;50516;52.272;5.136;2023-05-07T04:25:43;101632.97;;;15.94;93.16
64200;BME280;50516;52.272;5.136;2023-05-07T04:28:08;101629.66;;;15.92;93.31
64200;BME280;50516;52.272;5.136;2023-05-07T04:30:34;101626.91;;;15.92;93.33
64200;BME280;50516;52.272;5.136;2023-05-07T04:32:59;101631.63;;;15.91;93.42
64200;BME280;50516;52.272;5.136;2023-05-07T04:35:24;101634.16;;;15.87;93.44
64200;BME280;50516;52.272;5.136;2023-05-07T04:37:50;101636.34;;;15.91;93.63
64200;BME280;50516;52.272;5.136;2023-05-07T04:40:15;101642.13;;;15.94;93.56
64200;BME280;50516;52.272;5.136;2023-05-07T04:42:41;101632.69;;;15.95;93.36
64200;BME280;50516;52.272;5.136;2023-05-07T04:45:06;101631.56;;;15.96;93.11
64200;BME280;50516;52.272;5.136;2023-05-07T04:47:33;101628.28;;;15.94;93.37
64200;BME280;50516;52.272;5.136;2023-05-07T04:49:59;101641.84;;;15.96;93.23
64200;BME280;50516;52.272;5.136;2023-05-07T04:52:24;101631.81;;;16.00;93.20
64200;BME280;50516;52.272;5.136;2023-05-07T04:54:49;101645.09;;;16.03;93.16
64200;BME280;50516;52.272;5.136;2023-05-07T04:57:14;101638.19;;;16.00;92.99
64200;BME280;50516;52.272;5.136;2023-05-07T04:59:42;101646.47;;;16.05;92.87
64200;BME280;50516;52.272;5.136;2023-05-07T05:02:07;101639.00;;;16.01;93.00
64200;BME280;50516;52.272;5.136;2023-05-07T05:04:32;101646.50;;;16.00;92.84
64200;BME280;50516;52.272;5.136;2023-05-07T05:06:57;101645.13;;;15.98;92.95
64200;BME280;50516;52.272;5.136;2023-05-07T05:09:23;101653.34;;;16.08;92.55
64200;BME280;50516;52.272;5.136;2023-05-07T05:11:48;101648.94;;;16.07;92.61
64200;BME280;50516;52.272;5.136;2023-05-07T05:14:13;101646.94;;;16.13;92.39
64200;BME280;50516;52.272;5.136;2023-05-07T05:16:39;101655.50;;;16.16;92.42
64200;BME280;50516;52.272;5.136;2023-05-07T05:19:04;101649.72;;;16.13;92.30
64200;BME280;50516;52.272;5.136;2023-05-07T05:21:31;101653.53;;;16.22;92.18
64200;BME280;50516;52.272;5.136;2023-05-07T05:23:56;101651.31;;;16.19;92.27
64200;BME280;50516;52.272;5.136;2023-05-07T05:26:21;101654.03;;;16.24;91.71
64200;BME280;50516;52.272;5.136;2023-05-07T05:28:47;101644.81;;;16.34;91.32
64200;BME280;50516;52.272;5.136;2023-05-07T05:31:12;101650.47;;;16.23;91.12
64200;BME280;50516;52.272;5.136;2023-05-07T05:33:37;101654.34;;;16.22;91.12
64200;BME280;50516;52.272;5.136;2023-05-07T05:36:03;101655.50;;;16.16;91.38
64200;BME280;50516;52.272;5.136;2023-05-07T05:38:28;101662.16;;;16.15;91.66
64200;BME280;50516;52.272;5.136;2023-05-07T05:40:54;101657.97;;;16.18;92.07
64200;BME280;50516;52.272;5.136;2023-05-07T05:43:19;101660.78;;;16.13;92.15
64200;BME280;50516;52.272;5.136;2023-05-07T05:45:44;101663.81;;;16.16;92.52
64200;BME280;50516;52.272;5.136;2023-05-07T05:48:09;101674.34;;;16.14;92.29
64200;BME280;50516;52.272;5.136;2023-05-07T05:50:35;101673.91;;;16.02;92.93
64200;BME280;50516;52.272;5.136;2023-05-07T05:53:03;101686.38;;;15.99;93.67
64200;BME280;50516;52.272;5.136;2023-05-07T05:55:28;101678.84;;;16.10;93.17
64200;BME280;50516;52.272;5.136;2023-05-07T05:57:54;101682.59;;;16.24;92.81
64200;BME280;50516;52.272;5.136;2023-05-07T06:00:19;101675.41;;;16.23;92.70
64200;BME280;50516;52.272;5.136;2023-05-07T06:02:47;101679.84;;;16.24;92.72
64200;BME280;50516;52.272;5.136;2023-05-07T06:05:13;101671.19;;;16.26;93.21
64200;BME280;50516;52.272;5.136;2023-05-07T06:07:38;101675.34;;;16.29;93.02
64200;BME280;50516;52.272;5.136;2023-05-07T06:10:04;101679.72;;;16.35;92.98
64200;BME280;50516;52.272;5.136;2023-05-07T06:12:29;101685.28;;;16.35;93.35
64200;BME280;50516;52.272;5.136;2023-05-07T06:14:54;101683.19;;;16.51;93.01
64200;BME280;50516;52.272;5.136;2023-05-07T06:17:20;101688.16;;;16.54;92.71
64200;BME280;50516;52.272;5.136;2023-05-07T06:19:45;101701.13;;;16.58;92.62
64200;BME280;50516;52.272;5.136;2023-05-07T06:22:10;101703.56;;;16.65;92.88
64200;BME280;50516;52.272;5.136;2023-05-07T06:24:36;101696.69;;;16.57;92.93
64200;BME280;50516;52.272;5.136;2023-05-07T06:27:01;101708.81;;;16.67;92.94
64200;BME280;50516;52.272;5.136;2023-05-07T06:29:26;101699.22;;;16.83;92.66
64200;BME280;50516;52.272;5.136;2023-05-07T06:31:53;101703.03;;;16.92;92.35
64200;BME280;50516;52.272;5.136;2023-05-07T06:34:18;101703.97;;;16.77;92.68
64200;BME280;50516;52.272;5.136;2023-05-07T06:36:44;101705.03;;;16.87;92.64
64200;BME280;50516;52.272;5.136;2023-05-07T06:39:09;101710.88;;;16.85;92.34
64200;BME280;50516;52.272;5.136;2023-05-07T06:41:34;101717.50;;;16.89;92.70
64200;BME280;50516;52.272;5.136;2023-05-07T06:44:01;101707.44;;;16.93;92.51
64200;BME280;50516;52.272;5.136;2023-05-07T06:46:27;101714.31;;;17.01;91.84
64200;BME280;50516;52.272;5.136;2023-05-07T06:48:52;101703.34;;;16.91;91.61
64200;BME280;50516;52.272;5.136;2023-05-07T06:51:18;101710.50;;;16.92;92.36
64200;BME280;50516;52.272;5.136;2023-05-07T06:53:43;101704.38;;;16.95;92.35
64200;BME280;50516;52.272;5.136;2023-05-07T06:56:08;101710.88;;;16.85;93.69
64200;BME280;50516;52.272;5.136;2023-05-07T06:58:33;101707.44;;;16.93;93.47
64200;BME280;50516;52.272;5.136;2023-05-07T07:00:59;101720.66;;;17.02;93.08
64200;BME280;50516;52.272;5.136;2023-05-07T07:03:24;101711.94;;;17.13;93.06
64200;BME280;50516;52.272;5.136;2023-05-07T07:05:54;101711.22;;;17.27;92.73
64200;BME280;50516;52.272;5.136;2023-05-07T07:08:19;101718.44;;;17.47;91.46
64200;BME280;50516;52.272;5.136;2023-05-07T07:10:46;101721.25;;;17.66;90.76
64200;BME280;50516;52.272;5.136;2023-05-07T07:13:12;101725.16;;;17.84;89.92
64200;BME280;50516;52.272;5.136;2023-05-07T07:15:37;101726.47;;;17.92;90.08
64200;BME280;50516;52.272;5.136;2023-05-07T07:18:02;101726.41;;;17.97;90.07
64200;BME280;50516;52.272;5.136;2023-05-07T07:20:28;101725.59;;;17.96;89.70
64200;BME280;50516;52.272;5.136;2023-05-07T07:22:53;101722.88;;;17.91;89.87
64200;BME280;50516;52.272;5.136;2023-05-07T07:25:18;101714.25;;;17.93;89.89
64200;BME280;50516;52.272;5.136;2023-05-07T07:27:44;101720.72;;;17.88;90.04
64200;BME280;50516;52.272;5.136;2023-05-07T07:30:10;101712.94;;;17.85;89.99
64200;BME280;50516;52.272;5.136;2023-05-07T07:32:35;101710.31;;;17.94;89.76
64200;BME280;50516;52.272;5.136;2023-05-07T07:35:00;101709.50;;;18.12;89.04
64200;BME280;50516;52.272;5.136;2023-05-07T07:37:26;101720.75;;;18.21;88.80
64200;BME280;50516;52.272;5.136;2023-05-07T07:39:52;101713.06;;;18.32;88.73
64200;BME280;50516;52.272;5.136;2023-05-07T07:42:17;101714.16;;;18.50;88.73
64200;BME280;50516;52.272;5.136;2023-05-07T07:44:43;101719.81;;;19.05;87.06
64200;BME280;50516;52.272;5.136;2023-05-07T07:47:08;101724.97;;;18.98;87.52
64200;BME280;50516;52.272;5.136;2023-05-07T07:49:34;101721.16;;;18.94;87.27
64200;BME280;50516;52.272;5.136;2023-05-07T07:51:59;101718.56;;;18.84;88.19
64200;BME280;50516;52.272;5.136;2023-05-07T07:54:25;101714.09;;;18.83;87.91
64200;BME280;50516;52.272;5.136;2023-05-07T07:56:50;101717.13;;;19.00;87.44
64200;BME280;50516;52.272;5.136;2023-05-07T07:59:16;101717.78;;;19.11;86.70
64200;BME280;50516;52.272;5.136;2023-05-07T08:01:44;101707.66;;;19.15;85.73
64200;BME280;50516;52.272;5.136;2023-05-07T08:04:09;101712.59;;;19.18;83.86
64200;BME280;50516;52.272;5.136;2023-05-07T08:06:35;101708.69;;;19.33;83.99
64200;BME280;50516;52.272;5.136;2023-05-07T08:09:00;101707.75;;;19.38;83.94
64200;BME280;50516;52.272;5.136;2023-05-07T08:11:25;101711.38;;;19.38;83.76
64200;BME280;50516;52.272;5.136;2023-05-07T08:13:51;101706.22;;;19.18;85.02
64200;BME280;50516;52.272;5.136;2023-05-07T08:16:16;101701.47;;;19.18;84.89
64200;BME280;50516;52.272;5.136;2023-05-07T08:18:42;101716.75;;;19.21;84.02
64200;BME280;50516;52.272;5.136;2023-05-07T08:21:07;101710.03;;;19.22;83.64
64200;BME280;50516;52.272;5.136;2023-05-07T08:23:32;101711.38;;;19.24;84.48
64200;BME280;50516;52.272;5.136;2023-05-07T08:25:59;101722.50;;;19.24;83.98
64200;BME280;50516;52.272;5.136;2023-05-07T08:28:25;101718.78;;;19.43;83.18
64200;BME280;50516;52.272;5.136;2023-05-07T08:30:50;101722.63;;;19.33;83.09
64200;BME280;50516;52.272;5.136;2023-05-07T08:33:16;101717.75;;;19.52;83.38
64200;BME280;50516;52.272;5.136;2023-05-07T08:35:41;101718.38;;;19.49;83.81
64200;BME280;50516;52.272;5.136;2023-05-07T08:38:06;101724.63;;;19.69;83.24
64200;BME280;50516;52.272;5.136;2023-05-07T08:40:36;101728.34;;;19.78;83.22
64200;BME280;50516;52.272;5.136;2023-05-07T08:43:05;101735.16;;;19.72;82.76
64200;BME280;50516;52.272;5.136;2023-05-07T08:45:33;101737.47;;;19.93;81.53
64200;BME280;50516;52.272;5.136;2023-05-07T08:47:59;101741.53;;;19.59;81.92
64200;BME280;50516;52.272;5.136;2023-05-07T08:50:26;101755.78;;;19.71;82.46
64200;BME280;50516;52.272;5.136;2023-05-07T08:52:52;101747.38;;;19.99;81.30
64200;BME280;50516;52.272;5.136;2023-05-07T08:55:18;101741.34;;;20.05;80.99
64200;BME280;50516;52.272;5.136;2023-05-07T08:57:43;101750.91;;;19.91;79.92
64200;BME280;50516;52.272;5.136;2023-05-07T09:00:09;101747.78;;;20.06;80.35
64200;BME280;50516;52.272;5.136;2023-05-07T09:02:36;101747.06;;;20.23;80.10
64200;BME280;50516;52.272;5.136;2023-05-07T09:05:02;101748.78;;;20.10;79.08
64200;BME280;50516;52.272;5.136;2023-05-07T09:07:28;101745.22;;;20.18;79.64
64200;BME280;50516;52.272;5.136;2023-05-07T09:09:53;101748.91;;;20.28;78.85
64200;BME280;50516;52.272;5.136;2023-05-07T09:12:21;101747.72;;;20.20;79.01
64200;BME280;50516;52.272;5.136;2023-05-07T09:14:46;101747.47;;;20.30;79.15
64200;BME280;50516;52.272;5.136;2023-05-07T09:17:12;101745.84;;;20.60;77.61
64200;BME280;50516;52.272;5.136;2023-05-07T09:19:37;101747.50;;;20.84;76.61
64200;BME280;50516;52.272;5.136;2023-05-07T09:22:05;101745.25;;;20.64;75.93
64200;BME280;50516;52.272;5.136;2023-05-07T09:24:32;101749.72;;;20.51;76.81
64200;BME280;50516;52.272;5.136;2023-05-07T09:27:00;101746.75;;;20.70;76.20
64200;BME280;50516;52.272;5.136;2023-05-07T09:29:26;101750.25;;;20.75;76.61
64200;BME280;50516;52.272;5.136;2023-05-07T09:31:54;101746.91;;;20.65;75.91
64200;BME280;50516;52.272;5.136;2023-05-07T09:34:19;101743.41;;;20.82;76.03
64200;BME280;50516;52.272;5.136;2023-05-07T09:36:45;101747.88;;;20.91;74.71
64200;BME280;50516;52.272;5.136;2023-05-07T09:39:10;101749.75;;;21.05;74.89
64200;BME280;50516;52.272;5.136;2023-05-07T09:41:43;101748.66;;;21.23;73.81
64200;BME280;50516;52.272;5.136;2023-05-07T09:44:09;101749.56;;;21.01;72.47
64200;BME280;50516;52.272;5.136;2023-05-07T09:46:36;101740.97;;;20.89;73.02
64200;BME280;50516;52.272;5.136;2023-05-07T09:49:06;101734.75;;;20.92;73.93
64200;BME280;50516;52.272;5.136;2023-05-07T09:51:41;101737.94;;;20.76;74.02
64200;BME280;50516;52.272;5.136;2023-05-07T09:54:08;101736.78;;;20.69;72.42
64200;BME280;50516;52.272;5.136;2023-05-07T09:56:34;101739.84;;;20.90;73.60
64200;BME280;50516;52.272;5.136;2023-05-07T09:59:03;101739.78;;;21.12;69.49
64200;BME280;50516;52.272;5.136;2023-05-07T10:01:30;101734.56;;;21.28;71.75
64200;BME280;50516;52.272;5.136;2023-05-07T10:03:57;101737.13;;;21.56;69.62
64200;BME280;50516;52.272;5.136;2023-05-07T10:06:24;101725.78;;;21.61;68.98
64200;BME280;50516;52.272;5.136;2023-05-07T10:08:51;101732.53;;;21.60;69.61
64200;BME280;50516;52.272;5.136;2023-05-07T10:11:17;101735.00;;;21.62;70.29
64200;BME280;50516;52.272;5.136;2023-05-07T10:13:43;101734.34;;;21.56;68.13
64200;BME280;50516;52.272;5.136;2023-05-07T10:16:08;101730.09;;;21.76;68.46
64200;BME280;50516;52.272;5.136;2023-05-07T10:18:34;101742.25;;;21.80;67.58
64200;BME280;50516;52.272;5.136;2023-05-07T10:21:04;101749.47;;;21.81;67.47
64200;BME280;50516;52.272;5.136;2023-05-07T10:23:32;101742.91;;;21.86;68.54
64200;BME280;50516;52.272;5.136;2023-05-07T10:25:59;101753.78;;;22.14;67.87
64200;BME280;50516;52.272;5.136;2023-05-07T10:28:28;101748.84;;;22.19;66.26
64200;BME280;50516;52.272;5.136;2023-05-07T10:33:57;101745.88;;;22.07;66.72
64200;BME280;50516;52.272;5.136;2023-05-07T10:36:24;101739.47;;;22.24;66.75
64200;BME280;50516;52.272;5.136;2023-05-07T10:38:50;101746.38;;;22.44;66.07
64200;BME280;50516;52.272;5.136;2023-05-07T10:41:16;101749.31;;;22.65;65.72
64200;BME280;50516;52.272;5.136;2023-05-07T10:43:44;101746.88;;;22.55;64.71
64200;BME280;50516;52.272;5.136;2023-05-07T10:46:10;101755.41;;;22.58;63.86
64200;BME280;50516;52.272;5.136;2023-05-07T10:51:34;101749.91;;;22.79;64.06
64200;BME280;50516;52.272;5.136;2023-05-07T10:56:38;101742.94;;;22.94;63.01
64200;BME280;50516;52.272;5.136;2023-05-07T11:02:00;101755.91;;;23.76;61.66
64200;BME280;50516;52.272;5.136;2023-05-07T11:04:31;101747.03;;;23.74;59.51
64200;BME280;50516;52.272;5.136;2023-05-07T11:15:06;101757.28;;;23.40;60.90
64200;BME280;50516;52.272;5.136;2023-05-07T11:17:32;101748.00;;;23.48;61.13
64200;BME280;50516;52.272;5.136;2023-05-07T11:20:00;101742.97;;;23.63;61.24
64200;BME280;50516;52.272;5.136;2023-05-07T11:25:02;101746.13;;;23.61;59.79
64200;BME280;50516;52.272;5.136;2023-05-07T11:27:28;101751.13;;;23.77;60.23
64200;BME280;50516;52.272;5.136;2023-05-07T11:29:54;101759.38;;;23.73;60.54
64200;BME280;50516;52.272;5.136;2023-05-07T11:32:27;101748.75;;;23.87;60.04
64200;BME280;50516;52.272;5.136;2023-05-07T11:34:57;101756.72;;;23.85;58.60
64200;BME280;50516;52.272;5.136;2023-05-07T11:37:24;101751.22;;;24.10;57.96
64200;BME280;50516;52.272;5.136;2023-05-07T11:39:50;101751.56;;;24.09;58.02
64200;BME280;50516;52.272;5.136;2023-05-07T11:42:32;101753.00;;;23.94;58.36
64200;BME280;50516;52.272;5.136;2023-05-07T11:44:58;101744.47;;;24.45;57.06
64200;BME280;50516;52.272;5.136;2023-05-07T11:47:24;101745.72;;;24.35;56.86
64200;BME280;50516;52.272;5.136;2023-05-07T11:49:52;101745.84;;;24.38;55.94
64200;BME280;50516;52.272;5.136;2023-05-07T11:52:19;101749.25;;;24.44;57.25
64200;BME280;50516;52.272;5.136;2023-05-07T11:54:55;101751.59;;;24.42;57.48
64200;BME280;50516;52.272;5.136;2023-05-07T11:57:22;101751.06;;;24.28;56.37
64200;BME280;50516;52.272;5.136;2023-05-07T11:59:47;101749.72;;;24.46;56.40
64200;BME280;50516;52.272;5.136;2023-05-07T12:02:14;101750.69;;;24.50;55.34
64200;BME280;50516;52.272;5.136;2023-05-07T12:04:40;101757.06;;;24.59;55.10
64200;BME280;50516;52.272;5.136;2023-05-07T12:07:10;101752.81;;;24.53;53.98
64200;BME280;50516;52.272;5.136;2023-05-07T12:09:36;101745.63;;;24.65;54.14
64200;BME280;50516;52.272;5.136;2023-05-07T12:12:05;101749.75;;;24.79;53.96
64200;BME280;50516;52.272;5.136;2023-05-07T12:14:30;101749.97;;;24.74;54.57
64200;BME280;50516;52.272;5.136;2023-05-07T12:16:56;101748.56;;;24.47;54.23
64200;BME280;50516;52.272;5.136;2023-05-07T12:19:22;101746.91;;;24.67;54.31
64200;BME280;50516;52.272;5.136;2023-05-07T12:21:48;101759.47;;;24.94;53.32
64200;BME280;50516;52.272;5.136;2023-05-07T12:24:14;101753.38;;;24.80;52.61
64200;BME280;50516;52.272;5.136;2023-05-07T12:26:40;101756.91;;;24.89;52.62
64200;BME280;50516;52.272;5.136;2023-05-07T12:29:06;101744.63;;;24.94;52.62
64200;BME280;50516;52.272;5.136;2023-05-07T12:31:31;101746.81;;;24.88;52.04
64200;BME280;50516;52.272;5.136;2023-05-07T12:33:56;101749.84;;;24.71;51.51
64200;BME280;50516;52.272;5.136;2023-05-07T12:36:22;101749.72;;;24.46;52.23
64200;BME280;50516;52.272;5.136;2023-05-07T12:38:49;101755.78;;;24.36;52.59
64200;BME280;50516;52.272;5.136;2023-05-07T12:41:15;101748.44;;;24.43;52.31
64200;BME280;50516;52.272;5.136;2023-05-07T12:43:43;101743.03;;;24.59;51.61
64200;BME280;50516;52.272;5.136;2023-05-07T12:46:09;101749.00;;;24.37;53.20
64200;BME280;50516;52.272;5.136;2023-05-07T12:48:38;101753.66;;;24.33;52.26
64200;BME280;50516;52.272;5.136;2023-05-07T12:51:08;101745.75;;;24.14;53.46
64200;BME280;50516;52.272;5.136;2023-05-07T12:53:40;101750.38;;;24.31;53.92
64200;BME280;50516;52.272;5.136;2023-05-07T12:56:06;101751.91;;;24.07;53.08
64200;BME280;50516;52.272;5.136;2023-05-07T12:58:33;101756.56;;;24.24;53.48
64200;BME280;50516;52.272;5.136;2023-05-07T13:01:01;101754.94;;;24.02;52.84
64200;BME280;50516;52.272;5.136;2023-05-07T13:03:33;101750.53;;;24.13;52.19
64200;BME280;50516;52.272;5.136;2023-05-07T13:06:04;101758.19;;;24.25;53.14